sensor_id;sensor_type;location;lat;lon;timestamp;pressure;altitude;pressure_sealevel;temperature;humidity
3096;BME280;1558;42.700;23.360;2024-03-08T00:01:41;95379.47;;;4.52;100.00
3096;BME280;1558;42.700;23.360;2024-03-08T00:04:13;95379.94;;;4.54;100.00
3096;BME280;1558;42.700;23.360;2024-03-08T00:06:43;95375.34;;;4.60;100.00
3096;BME280;1558;42.700;23.360;2024-03-08T00:09:15;95378.81;;;4.60;100.00
3096;BME280;1558;42.700;23.360;2024-03-08T00:11:44;95373.47;;;4.60;100.00
3096;BME280;1558;42.700;23.360;2024-03-08T00:14:12;95370.28;;;4.58;100.00
3096;BME280;1558;42.700;23.360;2024-03-08T00:16:40;95375.00;;;4.48;100.00
3096;BME280;1558;42.700;23.360;2024-03-08T00:19:10;95374.19;;;4.47;100.00
3096;BME280;1558;42.700;23.360;2024-03-08T00:21:40;95369.28;;;4.54;100.00
3096;BME280;1558;42.700;23.360;2024-03-08T00:24:08;95371.06;;;4.59;100.00
3096;BME280;1558;42.700;23.360;2024-03-08T00:26:36;95367.69;;;4.53;100.00
3096;BME280;1558;42.700;23.360;2024-03-08T00:29:05;95372.19;;;4.39;100.00
3096;BME280;1558;42.700;23.360;2024-03-08T00:31:34;95366.78;;;4.44;100.00
3096;BME280;1558;42.700;23.360;2024-03-08T00:34:02;95362.44;;;4.48;100.00
3096;BME280;1558;42.700;23.360;2024-03-08T00:36:30;95369.28;;;4.54;100.00
3096;BME280;1558;42.700;23.360;2024-03-08T00:39:01;95364.16;;;4.58;100.00
3096;BME280;1558;42.700;23.360;2024-03-08T00:41:35;95366.31;;;4.56;100.00
3096;BME280;1558;42.700;23.360;2024-03-08T00:44:04;95365.84;;;4.54;100.00
3096;BME280;1558;42.700;23.360;2024-03-08T00:46:33;95358.31;;;4.56;100.00
3096;BME280;1558;42.700;23.360;2024-03-08T00:49:02;95350.31;;;4.56;100.00
3096;BME280;1558;42.700;23.360;2024-03-08T00:51:51;95350.75;;;4.44;100.00
3096;BME280;1558;42.700;23.360;2024-03-08T00:58:00;95342.84;;;4.39;100.00
3096;BME280;1558;42.700;23.360;2024-03-08T01:00:36;95352.84;;;4.47;100.00
3096;BME280;1558;42.700;23.360;2024-03-08T01:06:20;95337.50;;;4.39;100.00
3096;BME280;1558;42.700;23.360;2024-03-08T01:08:48;95345.91;;;4.46;100.00
3096;BME280;1558;42.700;23.360;2024-03-08T01:11:20;95335.75;;;4.48;100.00
3096;BME280;1558;42.700;23.360;2024-03-08T01:13:50;95324.56;;;4.46;100.00
3096;BME280;1558;42.700;23.360;2024-03-08T01:16:18;95335.25;;;4.46;100.00
3096;BME280;1558;42.700;23.360;2024-03-08T01:18:48;95327.38;;;4.36;100.00
3096;BME280;1558;42.700;23.360;2024-03-08T01:21:17;95327.31;;;4.41;100.00
3096;BME280;1558;42.700;23.360;2024-03-08T01:23:45;95330.25;;;4.40;100.00
3096;BME280;1558;42.700;23.360;2024-03-08T01:26:13;95322.63;;;4.33;100.00
3096;BME280;1558;42.700;23.360;2024-03-08T01:28:41;95321.56;;;4.34;100.00
3096;BME280;1558;42.700;23.360;2024-03-08T01:31:11;95320.75;;;4.34;100.00
3096;BME280;1558;42.700;23.360;2024-03-08T01:33:40;95312.66;;;4.39;100.00
3096;BME280;1558;42.700;23.360;2024-03-08T01:36:09;95315.25;;;4.44;100.00
3096;BME280;1558;42.700;23.360;2024-03-08T01:38:37;95312.78;;;4.47;100.00
3096;BME280;1558;42.700;23.360;2024-03-08T01:41:05;95313.81;;;4.51;100.00
3096;BME280;1558;42.700;23.360;2024-03-08T01:43:36;95321.00;;;4.51;100.00
3096;BME280;1558;42.700;23.360;2024-03-08T01:46:06;95321.09;;;4.46;100.00
3096;BME280;1558;42.700;23.360;2024-03-08T01:48:41;95315.25;;;4.44;100.00
3096;BME280;1558;42.700;23.360;2024-03-08T01:51:14;95320.28;;;4.45;100.00
3096;BME280;1558;42.700;23.360;2024-03-08T01:53:56;95315.25;;;4.44;100.00
3096;BME280;1558;42.700;23.360;2024-03-08T01:56:28;95313.47;;;4.39;100.00
3096;BME280;1558;42.700;23.360;2024-03-08T01:59:16;95310.38;;;4.32;100.00
3096;BME280;1558;42.700;23.360;2024-03-08T02:01:57;95307.44;;;4.47;100.00
3096;BME280;1558;42.700;23.360;2024-03-08T02:04:40;95299.44;;;4.47;100.00
3096;BME280;1558;42.700;23.360;2024-03-08T02:07:11;95307.34;;;4.52;100.00
3096;BME280;1558;42.700;23.360;2024-03-08T02:09:41;95306.88;;;4.50;100.00
3096;BME280;1558;42.700;23.360;2024-03-08T02:12:10;95298.44;;;4.43;100.00
3096;BME280;1558;42.700;23.360;2024-03-08T02:14:38;95305.94;;;4.41;100.00
3096;BME280;1558;42.700;23.360;2024-03-08T02:17:07;95312.97;;;4.37;100.00
3096;BME280;1558;42.700;23.360;2024-03-08T02:19:35;95309.88;;;4.30;100.00
3096;BME280;1558;42.700;23.360;2024-03-08T02:22:05;95318.97;;;4.29;100.00
3096;BME280;1558;42.700;23.360;2024-03-08T02:24:34;95316.06;;;4.26;100.00
3096;BME280;1558;42.700;23.360;2024-03-08T02:27:04;95316.78;;;4.31;100.00
3096;BME280;1558;42.700;23.360;2024-03-08T02:29:35;95319.16;;;4.33;100.00
3096;BME280;1558;42.700;23.360;2024-03-08T02:32:43;95317.97;;;4.25;100.00
3096;BME280;1558;42.700;23.360;2024-03-08T02:35:16;95318.09;;;4.15;100.00
3096;BME280;1558;42.700;23.360;2024-03-08T02:37:57;95310.59;;;4.17;100.00
3096;BME280;1558;42.700;23.360;2024-03-08T02:40:40;95319.19;;;4.14;100.00
3096;BME280;1558;42.700;23.360;2024-03-08T02:43:22;95320.19;;;3.99;100.00
3096;BME280;1558;42.700;23.360;2024-03-08T02:46:20;95326.84;;;4.02;100.00
3096;BME280;1558;42.700;23.360;2024-03-08T02:49:09;95325.75;;;4.03;100.00
3096;BME280;1558;42.700;23.360;2024-03-08T02:51:57;95323.81;;;3.90;100.00
3096;BME280;1558;42.700;23.360;2024-03-08T02:55:00;95327.06;;;3.87;100.00
3096;BME280;1558;42.700;23.360;2024-03-08T02:57:48;95324.84;;;3.75;100.00
3096;BME280;1558;42.700;23.360;2024-03-08T03:00:17;95320.06;;;3.72;100.00
3096;BME280;1558;42.700;23.360;2024-03-08T03:02:46;95315.22;;;3.74;100.00
3096;BME280;1558;42.700;23.360;2024-03-08T03:05:14;95320.25;;;3.76;100.00
3096;BME280;1558;42.700;23.360;2024-03-08T03:07:42;95314.94;;;3.76;100.00
3096;BME280;1558;42.700;23.360;2024-03-08T03:10:12;95318.13;;;3.78;100.00
3096;BME280;1558;42.700;23.360;2024-03-08T03:12:44;95320.88;;;3.73;100.00
3096;BME280;1558;42.700;23.360;2024-03-08T03:15:12;95320.94;;;3.68;100.00
3096;BME280;1558;42.700;23.360;2024-03-08T03:17:46;95324.66;;;3.67;100.00
3096;BME280;1558;42.700;23.360;2024-03-08T03:20:18;95327.31;;;3.67;100.00
3096;BME280;1558;42.700;23.360;2024-03-08T03:23:04;95331.28;;;3.69;100.00
3096;BME280;1558;42.700;23.360;2024-03-08T03:25:36;95334.81;;;3.65;100.00
3096;BME280;1558;42.700;23.360;2024-03-08T03:28:08;95332.72;;;3.62;100.00
3096;BME280;1558;42.700;23.360;2024-03-08T03:30:40;95338.13;;;3.57;100.00
3096;BME280;1558;42.700;23.360;2024-03-08T03:33:08;95344.69;;;3.64;100.00
3096;BME280;1558;42.700;23.360;2024-03-08T03:35:37;95335.75;;;3.55;100.00
3096;BME280;1558;42.700;23.360;2024-03-08T03:38:06;95347.31;;;3.46;100.00
3096;BME280;1558;42.700;23.360;2024-03-08T03:40:39;95352.00;;;3.35;100.00
3096;BME280;1558;42.700;23.360;2024-03-08T03:43:11;95350.69;;;3.32;100.00
3096;BME280;1558;42.700;23.360;2024-03-08T03:45:41;95355.38;;;3.40;100.00
3096;BME280;1558;42.700;23.360;2024-03-08T03:48:18;95358.34;;;3.39;100.00
3096;BME280;1558;42.700;23.360;2024-03-08T03:51:20;95355.19;;;3.37;100.00
3096;BME280;1558;42.700;23.360;2024-03-08T03:54:20;95365.66;;;3.28;100.00
3096;BME280;1558;42.700;23.360;2024-03-08T03:57:00;95370.56;;;3.40;100.00
3096;BME280;1558;42.700;23.360;2024-03-08T03:59:29;95372.19;;;3.41;100.00
3096;BME280;1558;42.700;23.360;2024-03-08T04:02:00;95373.53;;;3.38;100.00
3096;BME280;1558;42.700;23.360;2024-03-08T04:04:35;95368.56;;;3.32;100.00
3096;BME280;1558;42.700;23.360;2024-03-08T04:07:06;95369.88;;;3.34;100.00
3096;BME280;1558;42.700;23.360;2024-03-08T04:09:35;95388.16;;;3.41;100.00
3096;BME280;1558;42.700;23.360;2024-03-08T04:12:07;95369.00;;;3.39;100.00
3096;BME280;1558;42.700;23.360;2024-03-08T04:14:36;95371.97;;;3.37;100.00
3096;BME280;1558;42.700;23.360;2024-03-08T04:17:07;95372.91;;;3.47;100.00
3096;BME280;1558;42.700;23.360;2024-03-08T04:19:38;95381.44;;;3.49;100.00
3096;BME280;1558;42.700;23.360;2024-03-08T04:22:08;95386.28;;;3.65;100.00
3096;BME280;1558;42.700;23.360;2024-03-08T04:24:40;95385.78;;;3.63;100.00
3096;BME280;1558;42.700;23.360;2024-03-08T04:27:10;95384.44;;;3.66;100.00
3096;BME280;1558;42.700;23.360;2024-03-08T04:29:39;95391.97;;;3.59;100.00
3096;BME280;1558;42.700;23.360;2024-03-08T04:32:08;95389.94;;;3.51;100.00
3096;BME280;1558;42.700;23.360;2024-03-08T04:34:43;95395.25;;;3.51;100.00
3096;BME280;1558;42.700;23.360;2024-03-08T04:37:26;95395.72;;;3.58;100.00
3096;BME280;1558;42.700;23.360;2024-03-08T04:40:08;95404.50;;;3.58;100.00
3096;BME280;1558;42.700;23.360;2024-03-08T04:42:42;95400.53;;;3.56;100.00
3096;BME280;1558;42.700;23.360;2024-03-08T04:45:11;95406.31;;;3.63;100.00
3096;BME280;1558;42.700;23.360;2024-03-08T04:47:39;95399.28;;;3.72;100.00
3096;BME280;1558;42.700;23.360;2024-03-08T04:50:08;95410.06;;;3.62;100.00
3096;BME280;1558;42.700;23.360;2024-03-08T04:52:38;95408.94;;;3.68;100.00
3096;BME280;1558;42.700;23.360;2024-03-08T04:55:06;95408.56;;;3.74;100.00
3096;BME280;1558;42.700;23.360;2024-03-08T04:57:34;95406.59;;;3.85;100.00
3096;BME280;1558;42.700;23.360;2024-03-08T05:00:07;95410.38;;;3.79;100.00
3096;BME280;1558;42.700;23.360;2024-03-08T05:02:41;95412.53;;;3.77;100.00
3096;BME280;1558;42.700;23.360;2024-03-08T05:05:10;95421.06;;;3.79;100.00
3096;BME280;1558;42.700;23.360;2024-03-08T05:07:41;95422.59;;;3.85;100.00
3096;BME280;1558;42.700;23.360;2024-03-08T05:10:10;95426.78;;;3.91;100.00
3096;BME280;1558;42.700;23.360;2024-03-08T05:12:38;95421.69;;;3.94;100.00
3096;BME280;1558;42.700;23.360;2024-03-08T05:15:08;95424.16;;;3.86;100.00
3096;BME280;1558;42.700;23.360;2024-03-08T05:17:37;95431.22;;;3.77;100.00
3096;BME280;1558;42.700;23.360;2024-03-08T05:20:08;95425.03;;;3.81;100.00
3096;BME280;1558;42.700;23.360;2024-03-08T05:22:39;95433.53;;;3.83;100.00
3096;BME280;1558;42.700;23.360;2024-03-08T05:25:08;95436.84;;;3.75;100.00
3096;BME280;1558;42.700;23.360;2024-03-08T05:27:37;95438.88;;;3.60;100.00
3096;BME280;1558;42.700;23.360;2024-03-08T05:30:07;95448.19;;;3.62;100.00
3096;BME280;1558;42.700;23.360;2024-03-08T05:32:41;95452.50;;;3.58;100.00
3096;BME280;1558;42.700;23.360;2024-03-08T05:35:25;95455.44;;;3.57;100.00
3096;BME280;1558;42.700;23.360;2024-03-08T05:38:14;95458.69;;;3.54;100.00
3096;BME280;1558;42.700;23.360;2024-03-08T05:40:49;95461.41;;;3.49;100.00
3096;BME280;1558;42.700;23.360;2024-03-08T05:43:33;95468.66;;;3.43;100.00
3096;BME280;1558;42.700;23.360;2024-03-08T05:46:20;95474.78;;;3.43;100.00
3096;BME280;1558;42.700;23.360;2024-03-08T05:48:52;95475.59;;;3.44;100.00
3096;BME280;1558;42.700;23.360;2024-03-08T05:51:26;95473.13;;;3.48;100.00
3096;BME280;1558;42.700;23.360;2024-03-08T05:54:09;95480.22;;;3.57;100.00
3096;BME280;1558;42.700;23.360;2024-03-08T05:56:55;95485.81;;;3.61;100.00
3096;BME280;1558;42.700;23.360;2024-03-08T05:59:23;95488.56;;;3.51;100.00
3096;BME280;1558;42.700;23.360;2024-03-08T06:01:53;95494.38;;;3.58;100.00
3096;BME280;1558;42.700;23.360;2024-03-08T06:04:21;95496.28;;;3.52;100.00
3096;BME280;1558;42.700;23.360;2024-03-08T06:06:49;95497.16;;;3.42;100.00
3096;BME280;1558;42.700;23.360;2024-03-08T06:09:19;95496.91;;;3.44;100.00
3096;BME280;1558;42.700;23.360;2024-03-08T06:11:54;95503.31;;;3.43;100.00
3096;BME280;1558;42.700;23.360;2024-03-08T06:14:26;95510.00;;;3.40;100.00
3096;BME280;1558;42.700;23.360;2024-03-08T06:16:58;95511.03;;;3.45;100.00
3096;BME280;1558;42.700;23.360;2024-03-08T06:19:29;95505.13;;;3.48;100.00
3096;BME280;1558;42.700;23.360;2024-03-08T06:21:58;95508.63;;;3.43;100.00
3096;BME280;1558;42.700;23.360;2024-03-08T06:24:29;95511.03;;;3.45;100.00
3096;BME280;1558;42.700;23.360;2024-03-08T06:26:58;95511.66;;;3.31;100.00
3096;BME280;1558;42.700;23.360;2024-03-08T06:29:26;95521.75;;;3.39;100.00
3096;BME280;1558;42.700;23.360;2024-03-08T06:31:54;95516.84;;;3.52;100.00
3096;BME280;1558;42.700;23.360;2024-03-08T06:34:25;95512.13;;;3.38;100.00
3096;BME280;1558;42.700;23.360;2024-03-08T06:36:53;95516.44;;;3.34;100.00
3096;BME280;1558;42.700;23.360;2024-03-08T06:39:27;95512.56;;;3.22;100.00
3096;BME280;1558;42.700;23.360;2024-03-08T06:41:58;95530.44;;;3.16;100.00
3096;BME280;1558;42.700;23.360;2024-03-08T06:44:26;95521.91;;;3.19;100.00
3096;BME280;1558;42.700;23.360;2024-03-08T06:46:55;95520.31;;;3.18;100.00
3096;BME280;1558;42.700;23.360;2024-03-08T06:49:29;95524.50;;;3.29;100.00
3096;BME280;1558;42.700;23.360;2024-03-08T06:51:58;95523.13;;;3.32;100.00
3096;BME280;1558;42.700;23.360;2024-03-08T06:54:26;95534.41;;;3.53;100.00
3096;BME280;1558;42.700;23.360;2024-03-08T06:56:54;95528.81;;;3.54;100.00
3096;BME280;1558;42.700;23.360;2024-03-08T06:59:24;95526.66;;;3.56;100.00
3096;BME280;1558;42.700;23.360;2024-03-08T07:01:52;95532.16;;;3.65;100.00
3096;BME280;1558;42.700;23.360;2024-03-08T07:04:21;95525.56;;;3.57;100.00
3096;BME280;1558;42.700;23.360;2024-03-08T07:06:54;95525.81;;;3.61;100.00
3096;BME280;1558;42.700;23.360;2024-03-08T07:09:23;95533.72;;;3.71;100.00
3096;BME280;1558;42.700;23.360;2024-03-08T07:11:53;95537.22;;;3.90;100.00
3096;BME280;1558;42.700;23.360;2024-03-08T07:14:22;95544.06;;;4.01;100.00
3096;BME280;1558;42.700;23.360;2024-03-08T07:16:53;95538.06;;;4.09;100.00
3096;BME280;1558;42.700;23.360;2024-03-08T07:19:21;95537.72;;;4.39;100.00
3096;BME280;1558;42.700;23.360;2024-03-08T07:21:51;95539.69;;;4.52;100.00
3096;BME280;1558;42.700;23.360;2024-03-08T07:24:21;95540.38;;;4.82;100.00
3096;BME280;1558;42.700;23.360;2024-03-08T07:27:09;95538.47;;;5.01;100.00
3096;BME280;1558;42.700;23.360;2024-03-08T07:29:39;95539.78;;;4.85;100.00
3096;BME280;1558;42.700;23.360;2024-03-08T07:32:09;95531.97;;;4.88;100.00
3096;BME280;1558;42.700;23.360;2024-03-08T07:34:49;95543.53;;;5.02;100.00
3096;BME280;1558;42.700;23.360;2024-03-08T07:37:18;95540.66;;;4.99;100.00
3096;BME280;1558;42.700;23.360;2024-03-08T07:39:55;95542.09;;;5.10;100.00
3096;BME280;1558;42.700;23.360;2024-03-08T07:42:27;95549.47;;;5.18;100.00
3096;BME280;1558;42.700;23.360;2024-03-08T07:44:56;95545.81;;;5.09;100.00
3096;BME280;1558;42.700;23.360;2024-03-08T07:47:25;95548.34;;;5.19;100.00
3096;BME280;1558;42.700;23.360;2024-03-08T07:49:54;95530.75;;;5.18;100.00
3096;BME280;1558;42.700;23.360;2024-03-08T07:52:25;95552.47;;;5.30;100.00
3096;BME280;1558;42.700;23.360;2024-03-08T07:54:59;95552.03;;;5.41;100.00
3096;BME280;1558;42.700;23.360;2024-03-08T07:57:31;95549.47;;;5.50;100.00
3096;BME280;1558;42.700;23.360;2024-03-08T08:00:01;95542.66;;;5.58;100.00
3096;BME280;1558;42.700;23.360;2024-03-08T08:02:38;95546.88;;;5.77;100.00
3096;BME280;1558;42.700;23.360;2024-03-08T08:05:09;95548.59;;;6.00;100.00
3096;BME280;1558;42.700;23.360;2024-03-08T08:07:39;95538.41;;;6.30;100.00
3096;BME280;1558;42.700;23.360;2024-03-08T08:10:13;95542.75;;;6.53;100.00
3096;BME280;1558;42.700;23.360;2024-03-08T08:12:47;95545.72;;;6.51;100.00
3096;BME280;1558;42.700;23.360;2024-03-08T10:36:06;95502.81;;;13.24;77.74
3096;BME280;1558;42.700;23.360;2024-03-08T10:38:38;95509.41;;;14.37;73.08
3096;BME280;1558;42.700;23.360;2024-03-08T10:41:08;95484.44;;;14.78;65.71
3096;BME280;1558;42.700;23.360;2024-03-08T10:43:52;95510.03;;;14.62;64.42
3096;BME280;1558;42.700;23.360;2024-03-08T10:46:30;95494.88;;;14.96;63.38
3096;BME280;1558;42.700;23.360;2024-03-08T10:49:00;95501.75;;;14.89;60.17
3096;BME280;1558;42.700;23.360;2024-03-08T10:51:34;95471.34;;;14.21;57.57
3096;BME280;1558;42.700;23.360;2024-03-08T10:54:03;95378.78;;;12.26;61.91
3096;BME280;1558;42.700;23.360;2024-03-08T10:56:34;95497.66;;;12.70;62.88
3096;BME280;1558;42.700;23.360;2024-03-08T10:59:02;95495.06;;;12.26;66.22
3096;BME280;1558;42.700;23.360;2024-03-08T11:01:31;95488.56;;;11.82;66.71
3096;BME280;1558;42.700;23.360;2024-03-08T11:03:59;95489.34;;;11.49;68.32
3096;BME280;1558;42.700;23.360;2024-03-08T11:06:30;95445.84;;;10.89;69.18
3096;BME280;1558;42.700;23.360;2024-03-08T11:12:18;95477.19;;;11.55;71.09
3096;BME280;1558;42.700;23.360;2024-03-08T11:14:48;95471.84;;;12.61;66.83
3096;BME280;1558;42.700;23.360;2024-03-08T11:17:20;95418.91;;;12.87;64.58
3096;BME280;1558;42.700;23.360;2024-03-08T11:19:49;95404.06;;;12.69;61.54
3096;BME280;1558;42.700;23.360;2024-03-08T11:22:23;95399.31;;;12.78;61.53
3096;BME280;1558;42.700;23.360;2024-03-08T11:25:02;95468.88;;;13.42;60.13
3096;BME280;1558;42.700;23.360;2024-03-08T11:27:36;95470.38;;;13.55;58.77
3096;BME280;1558;42.700;23.360;2024-03-08T11:30:07;95392.19;;;13.26;56.79
3096;BME280;1558;42.700;23.360;2024-03-08T11:32:44;95457.81;;;12.95;57.00
3096;BME280;1558;42.700;23.360;2024-03-08T11:35:18;95461.38;;;12.35;58.47
3096;BME280;1558;42.700;23.360;2024-03-08T11:37:45;95460.63;;;13.11;58.83
3096;BME280;1558;42.700;23.360;2024-03-08T11:40:16;95459.88;;;13.38;57.78
3096;BME280;1558;42.700;23.360;2024-03-08T11:42:47;95454.06;;;13.67;56.41
3096;BME280;1558;42.700;23.360;2024-03-08T11:45:16;95461.19;;;13.44;56.47
3096;BME280;1558;42.700;23.360;2024-03-08T11:47:45;95409.16;;;12.71;56.31
3096;BME280;1558;42.700;23.360;2024-03-08T11:50:15;95459.72;;;13.19;55.80
3096;BME280;1558;42.700;23.360;2024-03-08T11:52:46;95347.25;;;12.97;54.91
3096;BME280;1558;42.700;23.360;2024-03-08T11:55:17;95437.41;;;13.37;52.60
3096;BME280;1558;42.700;23.360;2024-03-08T11:57:47;95415.94;;;13.17;54.70
3096;BME280;1558;42.700;23.360;2024-03-08T12:00:19;95451.91;;;13.88;55.01
3096;BME280;1558;42.700;23.360;2024-03-08T12:03:02;95453.88;;;13.88;53.83
3096;BME280;1558;42.700;23.360;2024-03-08T12:05:31;95458.94;;;14.20;54.83
3096;BME280;1558;42.700;23.360;2024-03-08T12:08:00;95471.94;;;14.43;52.82
3096;BME280;1558;42.700;23.360;2024-03-08T12:10:31;95461.38;;;14.88;52.94
3096;BME280;1558;42.700;23.360;2024-03-08T12:12:59;95447.59;;;14.62;50.92
3096;BME280;1558;42.700;23.360;2024-03-08T12:15:28;95458.28;;;14.39;52.74
3096;BME280;1558;42.700;23.360;2024-03-08T12:17:59;95460.94;;;14.70;52.86
3096;BME280;1558;42.700;23.360;2024-03-08T12:20:29;95431.00;;;13.30;52.52
3096;BME280;1558;42.700;23.360;2024-03-08T12:22:58;95450.34;;;12.28;55.46
3096;BME280;1558;42.700;23.360;2024-03-08T12:25:27;95451.66;;;12.22;56.30
3096;BME280;1558;42.700;23.360;2024-03-08T12:28:08;95375.94;;;12.46;57.99
3096;BME280;1558;42.700;23.360;2024-03-08T12:30:46;95446.47;;;13.73;56.53
3096;BME280;1558;42.700;23.360;2024-03-08T12:33:16;95449.41;;;14.11;54.91
3096;BME280;1558;42.700;23.360;2024-03-08T12:35:51;95363.59;;;13.87;54.14
3096;BME280;1558;42.700;23.360;2024-03-08T12:38:28;95438.91;;;14.41;53.32
3096;BME280;1558;42.700;23.360;2024-03-08T12:40:58;95394.19;;;13.72;54.13
3096;BME280;1558;42.700;23.360;2024-03-08T12:43:29;95441.16;;;14.07;54.12
3096;BME280;1558;42.700;23.360;2024-03-08T12:45:59;95429.16;;;13.62;53.27
3096;BME280;1558;42.700;23.360;2024-03-08T12:48:27;95435.44;;;13.50;53.98
3096;BME280;1558;42.700;23.360;2024-03-08T12:50:55;95433.09;;;12.97;54.79
3096;BME280;1558;42.700;23.360;2024-03-08T12:53:24;95432.44;;;13.00;54.79
3096;BME280;1558;42.700;23.360;2024-03-08T12:55:55;95427.69;;;12.97;55.35
3096;BME280;1558;42.700;23.360;2024-03-08T12:58:24;95426.94;;;12.72;53.28
3096;BME280;1558;42.700;23.360;2024-03-08T13:00:55;95430.03;;;11.86;56.86
3096;BME280;1558;42.700;23.360;2024-03-08T13:03:24;95430.88;;;12.74;57.01
3096;BME280;1558;42.700;23.360;2024-03-08T13:05:52;95436.25;;;12.99;55.60
3096;BME280;1558;42.700;23.360;2024-03-08T13:08:20;95431.97;;;13.37;53.73
3096;BME280;1558;42.700;23.360;2024-03-08T13:10:51;95433.44;;;13.07;54.32
3096;BME280;1558;42.700;23.360;2024-03-08T13:13:19;95428.09;;;13.23;54.31
3096;BME280;1558;42.700;23.360;2024-03-08T13:15:48;95367.31;;;12.96;54.53
3096;BME280;1558;42.700;23.360;2024-03-08T13:18:18;95427.72;;;13.24;53.55
3096;BME280;1558;42.700;23.360;2024-03-08T13:20:46;95435.09;;;13.24;54.14
3096;BME280;1558;42.700;23.360;2024-03-08T13:23:19;95437.69;;;12.68;53.76
3096;BME280;1558;42.700;23.360;2024-03-08T13:25:47;95425.53;;;12.50;54.93
3096;BME280;1558;42.700;23.360;2024-03-08T13:28:16;95429.94;;;12.55;55.80
3096;BME280;1558;42.700;23.360;2024-03-08T13:30:50;95406.63;;;12.14;55.81
3096;BME280;1558;42.700;23.360;2024-03-08T13:33:27;95421.69;;;12.03;56.26
3096;BME280;1558;42.700;23.360;2024-03-08T13:35:56;95420.63;;;11.26;56.82
3096;BME280;1558;42.700;23.360;2024-03-08T13:38:38;95407.44;;;10.71;58.51
3096;BME280;1558;42.700;23.360;2024-03-08T13:41:55;95433.00;;;10.65;59.57
3096;BME280;1558;42.700;23.360;2024-03-08T13:45:14;95334.19;;;9.61;60.85
3096;BME280;1558;42.700;23.360;2024-03-08T13:51:51;95439.06;;;10.12;63.09
3096;BME280;1558;42.700;23.360;2024-03-08T13:54:56;95429.88;;;10.05;63.40
3096;BME280;1558;42.700;23.360;2024-03-08T13:58:32;95430.44;;;9.81;64.34
3096;BME280;1558;42.700;23.360;2024-03-08T14:02:11;95071.47;;;7.16;66.53
3096;BME280;1558;42.700;23.360;2024-03-08T14:04:46;95421.53;;;9.43;68.55
3096;BME280;1558;42.700;23.360;2024-03-08T14:07:38;95431.13;;;9.61;70.11
3096;BME280;1558;42.700;23.360;2024-03-08T14:10:10;95420.56;;;9.39;70.08
3096;BME280;1558;42.700;23.360;2024-03-08T14:13:01;95442.59;;;9.41;71.71
3096;BME280;1558;42.700;23.360;2024-03-08T14:15:38;95423.91;;;9.36;72.66
3096;BME280;1558;42.700;23.360;2024-03-08T14:18:41;95431.66;;;9.37;72.74
3096;BME280;1558;42.700;23.360;2024-03-08T14:28:25;95403.56;;;8.75;73.91
3096;BME280;1558;42.700;23.360;2024-03-08T14:31:26;94923.34;;;6.08;76.90
3096;BME280;1558;42.700;23.360;2024-03-08T14:34:17;94865.16;;;5.83;76.98
3096;BME280;1558;42.700;23.360;2024-03-08T14:36:54;95335.28;;;8.50;75.29
3096;BME280;1558;42.700;23.360;2024-03-08T14:40:24;95431.88;;;8.72;76.09
3096;BME280;1558;42.700;23.360;2024-03-08T14:43:37;95432.34;;;8.57;77.96
3096;BME280;1558;42.700;23.360;2024-03-08T14:46:43;95220.25;;;7.27;78.99
3096;BME280;1558;42.700;23.360;2024-03-08T14:50:05;95102.81;;;6.34;78.85
3096;BME280;1558;42.700;23.360;2024-03-08T14:53:30;95426.63;;;8.42;80.34
3096;BME280;1558;42.700;23.360;2024-03-08T14:56:08;95428.63;;;8.19;79.69
3096;BME280;1558;42.700;23.360;2024-03-08T14:58:51;95353.84;;;7.47;81.63
3096;BME280;1558;42.700;23.360;2024-03-08T15:01:22;95383.38;;;7.47;81.95
3096;BME280;1558;42.700;23.360;2024-03-08T15:03:55;95396.72;;;7.70;84.13
3096;BME280;1558;42.700;23.360;2024-03-08T15:06:33;95045.31;;;5.39;84.33
3096;BME280;1558;42.700;23.360;2024-03-08T15:09:30;95381.22;;;7.58;85.10
3096;BME280;1558;42.700;23.360;2024-03-08T15:12:40;95437.34;;;7.77;84.99
3096;BME280;1558;42.700;23.360;2024-03-08T15:15:32;95373.94;;;7.19;86.33
3096;BME280;1558;42.700;23.360;2024-03-08T15:18:27;95439.25;;;7.45;89.04
3096;BME280;1558;42.700;23.360;2024-03-08T15:21:13;95443.78;;;7.36;89.69
3096;BME280;1558;42.700;23.360;2024-03-08T15:27:26;95440.69;;;6.99;91.76
3096;BME280;1558;42.700;23.360;2024-03-08T15:30:35;95433.69;;;6.89;94.81
3096;BME280;1558;42.700;23.360;2024-03-08T15:33:23;95397.66;;;6.59;95.27
3096;BME280;1558;42.700;23.360;2024-03-08T15:35:55;95434.34;;;6.72;95.64
3096;BME280;1558;42.700;23.360;2024-03-08T15:41:34;95434.91;;;6.47;94.58
3096;BME280;1558;42.700;23.360;2024-03-08T15:44:41;95454.03;;;6.54;95.93
3096;BME280;1558;42.700;23.360;2024-03-08T15:47:24;95452.91;;;6.69;96.32
3096;BME280;1558;42.700;23.360;2024-03-08T15:50:30;95453.47;;;6.44;95.80
3096;BME280;1558;42.700;23.360;2024-03-08T15:53:24;95388.47;;;6.02;96.48
3096;BME280;1558;42.700;23.360;2024-03-08T15:56:25;95452.72;;;6.30;97.04
3096;BME280;1558;42.700;23.360;2024-03-08T15:58:59;95460.13;;;6.33;97.74
3096;BME280;1558;42.700;23.360;2024-03-08T16:05:38;95451.69;;;6.26;98.75
3096;BME280;1558;42.700;23.360;2024-03-08T16:08:36;95471.16;;;6.18;98.94
3096;BME280;1558;42.700;23.360;2024-03-08T16:11:27;95463.13;;;6.18;100.00
3096;BME280;1558;42.700;23.360;2024-03-08T16:14:38;95476.28;;;6.28;100.00
3096;BME280;1558;42.700;23.360;2024-03-08T16:17:32;95469.78;;;6.06;100.00
3096;BME280;1558;42.700;23.360;2024-03-08T16:24:11;95452.09;;;5.78;100.00
3096;BME280;1558;42.700;23.360;2024-03-08T16:27:21;95445.84;;;5.69;100.00
3096;BME280;1558;42.700;23.360;2024-03-08T16:30:12;95489.41;;;5.88;100.00
3096;BME280;1558;42.700;23.360;2024-03-08T16:33:16;95509.22;;;5.87;100.00
3096;BME280;1558;42.700;23.360;2024-03-08T16:36:09;95458.84;;;5.62;100.00
3096;BME280;1558;42.700;23.360;2024-03-08T16:42:55;95514.34;;;5.84;100.00
3096;BME280;1558;42.700;23.360;2024-03-08T16:45:39;95514.00;;;5.90;100.00
3096;BME280;1558;42.700;23.360;2024-03-08T16:49:04;95433.63;;;5.36;100.00
3096;BME280;1558;42.700;23.360;2024-03-08T16:52:40;95478.34;;;5.49;100.00
3096;BME280;1558;42.700;23.360;2024-03-08T16:55:39;95520.06;;;5.64;100.00
3096;BME280;1558;42.700;23.360;2024-03-08T17:02:26;95069.47;;;2.84;100.00
3096;BME280;1558;42.700;23.360;2024-03-08T17:05:41;95504.63;;;5.61;100.00
3096;BME280;1558;42.700;23.360;2024-03-08T17:08:50;95529.59;;;5.70;100.00